createdAt,value
2024-04-24T00:02:22.954Z,56.68
2024-04-24T00:04:55.121Z,57.67
2024-04-24T00:07:27.658Z,57.15
2024-04-24T00:10:01.055Z,56.38
2024-04-24T00:12:33.912Z,56.07
2024-04-24T00:15:06.546Z,56.04
2024-04-24T00:17:39.789Z,56.00
2024-04-24T00:20:12.157Z,55.96
2024-04-24T00:22:44.700Z,55.58
2024-04-24T00:25:17.260Z,54.75
2024-04-24T00:28:00.792Z,54.19
2024-04-24T00:30:33.146Z,54.33
2024-04-24T00:33:06.044Z,54.10
2024-04-24T00:35:39.100Z,53.83
2024-04-24T00:38:11.050Z,53.31
2024-04-24T00:40:43.600Z,53.40
2024-04-24T00:43:15.816Z,53.36
2024-04-24T00:45:48.883Z,52.90
2024-04-24T00:48:21.667Z,52.71
2024-04-24T00:50:54.004Z,51.74
2024-04-24T00:53:26.335Z,52.18
2024-04-24T00:55:59.590Z,52.33
2024-04-24T00:58:31.796Z,53.69
2024-04-24T01:01:04.350Z,54.05
2024-04-24T01:03:36.752Z,54.61
2024-04-24T01:06:09.319Z,54.94
2024-04-24T01:08:41.606Z,54.58
2024-04-24T01:11:15.275Z,55.11
2024-04-24T01:13:55.749Z,55.03
2024-04-24T01:16:33.517Z,55.22
2024-04-24T01:19:09.726Z,55.78
2024-04-24T01:22:11.870Z,55.45
2024-04-24T01:24:50.110Z,55.02
2024-04-24T01:27:25.105Z,55.43
2024-04-24T01:29:57.749Z,55.14
2024-04-24T01:32:30.440Z,54.99
2024-04-24T01:35:03.412Z,54.85
2024-04-24T01:37:37.282Z,55.05
2024-04-24T01:40:12.540Z,54.29
2024-04-24T01:42:45.026Z,53.83
2024-04-24T01:45:18.459Z,53.96
2024-04-24T01:47:52.619Z,54.50
2024-04-24T01:50:28.145Z,54.53
2024-04-24T01:53:01.244Z,54.43
2024-04-24T01:55:37.247Z,54.73
2024-04-24T01:58:10.690Z,55.01
2024-04-24T02:00:44.347Z,54.99
2024-04-24T02:03:19.712Z,55.39
2024-04-24T02:05:52.289Z,55.26
2024-04-24T02:08:26.081Z,55.43
2024-04-24T02:10:59.285Z,55.28
2024-04-24T02:13:33.924Z,54.71
2024-04-24T02:16:07.567Z,54.91
2024-04-24T02:18:40.576Z,54.64
2024-04-24T02:21:16.456Z,54.02
2024-04-24T02:23:50.449Z,53.32
2024-04-24T02:26:24.887Z,53.14
2024-04-24T02:28:59.500Z,53.46
2024-04-24T02:31:36.919Z,53.38
2024-04-24T02:34:10.052Z,53.40
2024-04-24T02:36:43.675Z,53.48
2024-04-24T02:39:16.660Z,54.08
2024-04-24T02:41:49.732Z,54.11
2024-04-24T02:44:22.631Z,54.68
2024-04-24T02:46:55.662Z,54.43
2024-04-24T02:49:31.714Z,54.10
2024-04-24T02:52:04.435Z,54.34
2024-04-24T02:54:38.594Z,53.55
2024-04-24T02:57:11.714Z,53.45
2024-04-24T02:59:44.644Z,53.39
2024-04-24T03:02:18.143Z,52.94
2024-04-24T03:04:52.805Z,52.97
2024-04-24T03:07:34.672Z,53.04
2024-04-24T03:10:07.836Z,52.84
2024-04-24T03:12:40.422Z,52.77
2024-04-24T03:15:14.029Z,53.11
2024-04-24T03:17:50.693Z,52.83
2024-04-24T03:20:26.212Z,52.90
2024-04-24T03:22:59.218Z,52.46
2024-04-24T03:25:37.730Z,52.58
2024-04-24T03:28:15.868Z,52.00
2024-04-24T03:30:49.558Z,51.93
2024-04-24T03:33:25.966Z,51.87
2024-04-24T03:35:59.348Z,51.53
2024-04-24T03:38:32.244Z,51.85
2024-04-24T03:41:07.210Z,51.52
2024-04-24T03:43:41.837Z,50.76
2024-04-24T03:46:16.585Z,50.19
2024-04-24T03:48:52.470Z,50.29
2024-04-24T03:51:26.970Z,50.91
2024-04-24T03:53:59.556Z,50.53
2024-04-24T03:56:35.752Z,50.38
2024-04-24T03:59:08.354Z,49.45
2024-04-24T04:01:44.683Z,50.25
2024-04-24T04:04:20.564Z,49.73
2024-04-24T04:06:53.858Z,49.51
2024-04-24T04:09:26.559Z,49.59
2024-04-24T04:12:01.209Z,49.23
2024-04-24T04:14:35.375Z,48.92
2024-04-24T04:17:08.466Z,49.08
2024-04-24T04:19:45.565Z,48.75
2024-04-24T04:22:20.102Z,48.90
2024-04-24T04:24:58.796Z,47.66
2024-04-24T04:27:35.924Z,48.14
2024-04-24T04:30:11.917Z,48.38
2024-04-24T04:32:45.232Z,47.77
2024-04-24T04:35:18.958Z,47.22
2024-04-24T04:37:51.934Z,47.13
2024-04-24T04:40:27.861Z,46.30
2024-04-24T04:43:04.448Z,46.70
2024-04-24T04:45:41.103Z,46.71
2024-04-24T04:48:18.351Z,47.05
2024-04-24T04:50:51.101Z,46.68
2024-04-24T04:53:23.829Z,46.12
2024-04-24T04:56:02.617Z,45.83
2024-04-24T04:58:35.297Z,45.86
2024-04-24T05:01:09.135Z,45.93
2024-04-24T05:03:44.116Z,45.41
2024-04-24T05:06:18.295Z,45.43
2024-04-24T05:08:54.566Z,45.75
2024-04-24T05:11:28.045Z,45.31
2024-04-24T05:14:00.885Z,45.58
2024-04-24T05:16:33.642Z,44.92
2024-04-24T05:19:06.928Z,44.73
2024-04-24T05:21:40.282Z,44.77
2024-04-24T05:24:13.702Z,44.84
2024-04-24T05:27:05.948Z,45.12
2024-04-24T05:29:41.213Z,45.95
2024-04-24T05:32:19.044Z,44.87
2024-04-24T05:34:55.762Z,44.59
2024-04-24T05:37:30.433Z,44.77
2024-04-24T05:40:03.755Z,44.73
2024-04-24T05:42:39.959Z,45.15
2024-04-24T05:45:13.156Z,45.06
2024-04-24T05:47:49.181Z,44.95
2024-04-24T05:50:22.742Z,45.21
2024-04-24T05:52:56.051Z,44.92
2024-04-24T05:55:32.824Z,44.99
2024-04-24T05:58:09.510Z,44.80
2024-04-24T06:00:42.825Z,44.69
2024-04-24T06:03:15.903Z,43.91
2024-04-24T06:05:49.471Z,43.89
2024-04-24T06:08:24.863Z,44.04
2024-04-24T06:11:00.174Z,44.82
2024-04-24T06:13:33.781Z,44.55
2024-04-24T06:16:08.928Z,44.55
2024-04-24T06:18:42.466Z,44.72
2024-04-24T06:21:16.020Z,43.46
2024-04-24T06:23:49.962Z,43.43
2024-04-24T06:26:27.719Z,43.74
2024-04-24T06:29:02.262Z,42.99
2024-04-24T06:31:35.667Z,43.24
2024-04-24T06:34:13.375Z,42.91
2024-04-24T06:36:49.672Z,42.41
2024-04-24T06:39:26.421Z,42.23
2024-04-24T06:42:05.346Z,42.58
2024-04-24T06:44:38.916Z,42.50
2024-04-24T06:47:13.585Z,42.90
2024-04-24T06:49:50.278Z,41.67
2024-04-24T06:52:24.113Z,41.56
2024-04-24T06:54:57.329Z,41.46
2024-04-24T06:57:34.036Z,41.61
2024-04-24T07:00:07.284Z,41.69
2024-04-24T07:02:43.341Z,41.71
2024-04-24T07:05:16.892Z,41.14
2024-04-24T07:07:51.459Z,41.80
2024-04-24T07:10:25.070Z,42.69
2024-04-24T07:12:58.615Z,42.01
2024-04-24T07:15:31.583Z,41.27
2024-04-24T07:18:04.473Z,41.01
2024-04-24T07:20:38.008Z,41.17
2024-04-24T07:23:16.486Z,40.22
2024-04-24T07:25:49.670Z,41.93
2024-04-24T07:28:22.764Z,40.94
2024-04-24T07:30:56.740Z,40.19
2024-04-24T07:33:34.456Z,40.75
2024-04-24T07:36:08.723Z,40.69
2024-04-24T07:38:42.141Z,40.28
2024-04-24T07:41:19.021Z,39.68
2024-04-24T07:43:51.801Z,39.46
2024-04-24T07:46:30.638Z,39.20
2024-04-24T07:49:06.402Z,38.20
2024-04-24T07:51:42.507Z,38.80
2024-04-24T07:54:15.953Z,38.28
2024-04-24T07:56:52.372Z,38.69
2024-04-24T07:59:25.428Z,38.85
2024-04-24T08:02:00.642Z,39.21
2024-04-24T08:04:33.628Z,39.08
2024-04-24T08:07:06.392Z,38.88
2024-04-24T08:09:40.049Z,38.78
2024-04-24T08:12:13.453Z,39.61
2024-04-24T08:14:46.169Z,39.13
2024-04-24T08:17:19.991Z,38.19
2024-04-24T08:19:56.626Z,38.37
2024-04-24T08:22:29.330Z,38.51
2024-04-24T08:25:01.816Z,38.37
2024-04-24T08:27:35.035Z,38.33
2024-04-24T08:30:09.222Z,37.62
2024-04-24T08:32:47.848Z,38.79
2024-04-24T08:35:23.962Z,38.14
2024-04-24T08:37:56.885Z,38.42
2024-04-24T08:40:30.138Z,38.81
2024-04-24T08:43:03.753Z,38.70
2024-04-24T08:45:36.632Z,38.52
2024-04-24T08:48:13.053Z,38.61
2024-04-24T08:50:52.670Z,38.87
2024-04-24T08:53:29.094Z,38.46
2024-04-24T08:56:08.660Z,38.79
2024-04-24T08:58:42.822Z,39.59
2024-04-24T09:01:17.965Z,39.82
2024-04-24T09:03:57.246Z,39.85
2024-04-24T09:06:32.683Z,40.52
2024-04-24T09:09:06.563Z,40.07
2024-04-24T09:11:40.148Z,40.30
2024-04-24T09:14:16.643Z,40.64
2024-04-24T09:16:54.819Z,40.32
2024-04-24T09:19:27.726Z,39.92
2024-04-24T09:22:01.697Z,40.14
2024-04-24T09:24:39.084Z,40.68
2024-04-24T09:27:12.412Z,40.77
2024-04-24T09:29:46.214Z,41.77
2024-04-24T09:32:19.661Z,42.49
2024-04-24T09:34:56.588Z,42.65
2024-04-24T09:37:29.801Z,43.83
2024-04-24T09:40:03.200Z,44.06
2024-04-24T09:42:39.495Z,43.33
2024-04-24T09:45:13.323Z,44.25
2024-04-24T09:47:47.923Z,45.17
2024-04-24T09:50:24.894Z,45.00
2024-04-24T09:52:58.050Z,45.50
2024-04-24T09:55:33.906Z,45.35
2024-04-24T09:58:09.228Z,44.38
2024-04-24T10:00:55.418Z,44.43
2024-04-24T10:03:43.180Z,44.22
2024-04-24T10:06:27.938Z,44.40
2024-04-24T10:09:03.451Z,44.69
2024-04-24T10:11:40.216Z,44.50
2024-04-24T10:14:14.160Z,45.17
2024-04-24T10:16:51.676Z,44.34
2024-04-24T10:19:25.601Z,44.80
2024-04-24T10:22:00.395Z,44.06
2024-04-24T10:24:38.160Z,44.64
2024-04-24T10:27:17.495Z,44.69
2024-04-24T10:29:51.712Z,44.18
2024-04-24T10:32:25.569Z,43.90
2024-04-24T10:34:59.860Z,43.54
2024-04-24T10:37:32.723Z,44.17
2024-04-24T10:40:10.656Z,43.58
2024-04-24T10:42:44.624Z,44.38
2024-04-24T10:45:20.463Z,43.50
2024-04-24T10:47:56.569Z,44.10
2024-04-24T10:50:32.650Z,44.49
2024-04-24T10:53:06.720Z,44.10
2024-04-24T10:55:39.870Z,44.27
2024-04-24T10:58:29.481Z,44.88
2024-04-24T11:01:13.915Z,45.22
2024-04-24T11:03:47.901Z,45.19
2024-04-24T11:06:22.385Z,45.46
2024-04-24T11:08:56.310Z,45.27
2024-04-24T11:11:33.284Z,44.72
2024-04-24T11:14:13.571Z,45.26
2024-04-24T11:17:08.644Z,44.66
2024-04-24T11:19:41.844Z,44.74
2024-04-24T11:22:14.978Z,45.58
2024-04-24T11:24:58.226Z,44.96
2024-04-24T11:27:33.474Z,45.29
2024-04-24T11:30:17.778Z,45.68
2024-04-24T11:33:00.752Z,46.61
2024-04-24T11:35:37.090Z,45.58
2024-04-24T11:38:15.137Z,46.06
2024-04-24T11:40:48.174Z,46.09
2024-04-24T11:43:23.621Z,45.82
2024-04-24T11:45:59.591Z,45.97
2024-04-24T11:48:40.413Z,45.73
2024-04-24T11:51:18.377Z,46.03
2024-04-24T11:53:55.433Z,46.06
2024-04-24T11:56:30.794Z,45.58
2024-04-24T11:59:12.233Z,46.28
2024-04-24T12:01:47.043Z,46.10
2024-04-24T12:04:21.617Z,46.00
2024-04-24T12:06:56.477Z,46.64
2024-04-24T12:09:30.752Z,46.44
2024-04-24T12:12:08.227Z,47.08
2024-04-24T12:14:44.182Z,47.09
2024-04-24T12:17:24.148Z,47.25
2024-04-24T12:19:58.708Z,47.37
2024-04-24T12:22:31.877Z,47.64
2024-04-24T12:25:05.304Z,47.22
2024-04-24T12:27:41.348Z,47.56
2024-04-24T12:30:17.735Z,46.88
2024-04-24T12:32:56.458Z,47.80
2024-04-24T12:35:38.073Z,47.34
2024-04-24T12:38:14.936Z,47.52
2024-04-24T12:40:59.389Z,47.59
2024-04-24T12:43:35.611Z,47.12
2024-04-24T12:46:10.589Z,47.28
2024-04-24T12:48:47.631Z,48.23
2024-04-24T12:51:26.188Z,48.21
2024-04-24T12:54:22.809Z,48.37
2024-04-24T12:56:59.705Z,48.46
2024-04-24T12:59:37.821Z,48.67
2024-04-24T13:02:21.618Z,48.47
2024-04-24T13:04:58.691Z,48.51
2024-04-24T13:07:35.816Z,48.27
2024-04-24T13:10:15.568Z,49.04
2024-04-24T13:12:55.694Z,48.63
2024-04-24T13:15:36.213Z,48.51
2024-04-24T13:18:10.358Z,48.55
2024-04-24T13:20:45.009Z,48.91
2024-04-24T13:23:19.128Z,48.38
2024-04-24T13:25:52.367Z,48.59
2024-04-24T13:28:26.095Z,48.58
2024-04-24T13:31:06.457Z,48.37
2024-04-24T13:33:49.918Z,48.52
2024-04-24T13:36:25.096Z,48.65
2024-04-24T13:38:59.331Z,48.65
2024-04-24T13:41:37.366Z,48.63
2024-04-24T13:44:23.275Z,48.47
2024-04-24T13:47:03.041Z,48.53
2024-04-24T13:49:40.588Z,48.83
2024-04-24T13:52:18.693Z,48.70
2024-04-24T13:54:55.894Z,48.70
2024-04-24T13:57:34.176Z,48.69
2024-04-24T14:00:14.539Z,48.92
2024-04-24T14:02:49.745Z,48.73
2024-04-24T14:05:28.261Z,49.02
2024-04-24T14:08:02.375Z,49.33
2024-04-24T14:10:41.025Z,49.86
2024-04-24T14:13:19.142Z,51.18
2024-04-24T14:15:57.534Z,51.62
2024-04-24T14:18:34.571Z,51.97
2024-04-24T14:21:10.875Z,51.71
2024-04-24T14:23:56.807Z,51.63
2024-04-24T14:26:32.381Z,51.64
2024-04-24T14:29:08.020Z,51.59
2024-04-24T14:31:46.636Z,51.96
2024-04-24T14:34:23.669Z,52.01
2024-04-24T14:37:04.164Z,52.07
2024-04-24T14:39:40.171Z,53.03
2024-04-24T14:42:22.743Z,53.20
2024-04-24T14:45:02.216Z,53.79
2024-04-24T14:47:37.723Z,54.02
2024-04-24T14:50:13.644Z,54.03
2024-04-24T14:52:52.397Z,54.10
2024-04-24T14:55:33.051Z,54.13
2024-04-24T14:58:18.237Z,54.39
2024-04-24T15:00:57.662Z,54.33
2024-04-24T15:03:58.874Z,54.58
2024-04-24T15:06:39.853Z,54.47
2024-04-24T15:09:16.918Z,54.76
2024-04-24T15:12:00.112Z,54.73
2024-04-24T15:14:38.225Z,54.53
2024-04-24T15:17:21.429Z,54.41
2024-04-24T15:20:03.990Z,54.65
2024-04-24T15:22:42.375Z,55.01
2024-04-24T15:25:31.114Z,54.79
2024-04-24T15:28:07.162Z,54.67
2024-04-24T15:30:41.216Z,54.73
2024-04-24T15:33:25.368Z,54.82
2024-04-24T15:36:11.080Z,54.79
2024-04-24T15:38:46.566Z,54.83
2024-04-24T15:41:24.005Z,54.86
2024-04-24T15:44:07.033Z,55.05
2024-04-24T15:46:41.860Z,55.45
2024-04-24T15:49:22.328Z,54.73
2024-04-24T15:52:02.623Z,54.64
2024-04-24T15:54:36.707Z,54.92
2024-04-24T15:57:13.569Z,54.89
2024-04-24T15:59:48.113Z,54.64
2024-04-24T16:02:30.099Z,54.50
2024-04-24T16:05:05.450Z,54.56
2024-04-24T16:07:39.224Z,53.99
2024-04-24T16:10:22.662Z,54.57
2024-04-24T16:13:01.227Z,54.32
2024-04-24T16:15:37.949Z,54.52
2024-04-24T16:18:14.284Z,54.53
2024-04-24T16:20:52.654Z,54.60
2024-04-24T16:23:30.400Z,54.71
2024-04-24T16:26:04.711Z,54.80
2024-04-24T16:28:38.363Z,54.58
2024-04-24T16:31:14.409Z,54.62
2024-04-24T16:33:49.399Z,54.30
2024-04-24T16:36:25.346Z,54.24
2024-04-24T16:39:04.057Z,54.51
2024-04-24T16:41:43.380Z,54.18
2024-04-24T16:44:25.195Z,54.15
2024-04-24T16:47:02.322Z,54.49
2024-04-24T16:49:38.400Z,54.63
2024-04-24T16:52:17.456Z,54.56
2024-04-24T16:54:50.268Z,54.92
2024-04-24T16:57:23.249Z,54.92
2024-04-24T16:59:58.815Z,54.84
2024-04-24T17:02:31.913Z,54.90
2024-04-24T17:05:05.121Z,54.87
2024-04-24T17:07:37.932Z,55.03
2024-04-24T17:10:15.101Z,55.26
2024-04-24T17:12:50.555Z,55.38
2024-04-24T17:15:25.778Z,55.26
2024-04-24T17:17:58.394Z,55.26
2024-04-24T17:20:34.361Z,55.12
2024-04-24T17:23:07.218Z,55.50
2024-04-24T17:25:40.247Z,55.31
2024-04-24T17:28:12.889Z,55.84
2024-04-24T17:30:45.411Z,56.39
2024-04-24T17:33:17.775Z,56.71
2024-04-24T17:35:56.257Z,57.05
2024-04-24T17:38:33.090Z,56.79
2024-04-24T17:41:07.396Z,57.38
2024-04-24T17:43:39.718Z,57.41
2024-04-24T17:46:12.238Z,57.27
2024-04-24T17:48:44.887Z,57.50
2024-04-24T17:51:17.578Z,56.90
2024-04-24T17:53:50.199Z,56.48
2024-04-24T17:56:25.974Z,56.87
2024-04-24T17:58:58.846Z,55.89
2024-04-24T18:01:31.168Z,56.01
2024-04-24T18:04:03.474Z,55.98
2024-04-24T18:06:38.007Z,55.59
2024-04-24T18:09:10.103Z,55.25
2024-04-24T18:11:42.475Z,56.13
2024-04-24T18:14:15.707Z,57.59
2024-04-24T18:16:48.057Z,57.79
2024-04-24T18:19:20.313Z,58.01
2024-04-24T18:21:52.640Z,58.13
2024-04-24T18:24:26.788Z,57.51
2024-04-24T18:27:00.309Z,56.89
2024-04-24T18:29:32.401Z,57.46
2024-04-24T18:32:07.961Z,57.73
2024-04-24T18:34:40.772Z,57.18
2024-04-24T18:37:12.718Z,57.60
2024-04-24T18:39:44.856Z,58.73
2024-04-24T18:42:16.971Z,58.66
2024-04-24T18:44:49.317Z,58.97
2024-04-24T18:47:23.529Z,58.68
2024-04-24T18:49:56.182Z,58.82
2024-04-24T18:52:28.797Z,58.89
2024-04-24T18:55:00.962Z,58.71
2024-04-24T18:57:34.185Z,59.36
2024-04-24T19:00:12.753Z,59.20
2024-04-24T19:02:44.855Z,59.41
2024-04-24T19:05:18.453Z,59.23
2024-04-24T19:07:50.589Z,59.43
2024-04-24T19:10:23.914Z,59.01
2024-04-24T19:12:56.012Z,59.25
2024-04-24T19:15:28.166Z,59.40
2024-04-24T19:18:00.275Z,59.15
2024-04-24T19:20:34.811Z,59.27
2024-04-24T19:23:07.206Z,59.90
2024-04-24T19:25:39.632Z,59.92
2024-04-24T19:28:12.397Z,60.27
2024-04-24T19:30:44.498Z,60.54
2024-04-24T19:33:16.633Z,60.32
2024-04-24T19:35:53.857Z,60.16
2024-04-24T19:38:25.974Z,59.98
2024-04-24T19:41:00.099Z,60.75
2024-04-24T19:43:35.785Z,59.95
2024-04-24T19:46:11.185Z,59.75
2024-04-24T19:48:43.220Z,59.79
2024-04-24T19:51:19.735Z,60.14
2024-04-24T19:53:51.424Z,60.25
2024-04-24T19:56:23.582Z,60.09
2024-04-24T19:58:55.498Z,59.85
2024-04-24T20:01:30.986Z,60.34
2024-04-24T20:04:03.058Z,60.45
2024-04-24T20:06:37.363Z,60.18
2024-04-24T20:09:11.749Z,60.37
2024-04-24T20:11:43.900Z,59.92
2024-04-24T20:14:16.130Z,60.16
2024-04-24T20:16:49.262Z,59.92
2024-04-24T20:19:23.166Z,59.71
2024-04-24T20:21:57.872Z,60.71
2024-04-24T20:24:32.792Z,60.85
2024-04-24T20:27:04.807Z,60.80
2024-04-24T20:29:37.717Z,60.70
2024-04-24T20:32:10.088Z,60.58
2024-04-24T20:34:42.569Z,60.51
2024-04-24T20:37:14.763Z,60.81
2024-04-24T20:39:50.048Z,60.77
2024-04-24T20:42:22.223Z,60.55
2024-04-24T20:44:59.145Z,61.05
2024-04-24T20:47:31.689Z,61.01
2024-04-24T20:50:06.344Z,60.89
2024-04-24T20:52:39.650Z,60.83
2024-04-24T20:55:14.736Z,61.01
2024-04-24T20:57:46.940Z,61.51
2024-04-24T21:00:19.174Z,61.18
2024-04-24T21:02:52.040Z,61.08
2024-04-24T21:05:30.377Z,61.26
2024-04-24T21:08:03.230Z,61.45
2024-04-24T21:10:35.705Z,61.50
2024-04-24T21:13:07.712Z,62.06
2024-04-24T21:15:39.772Z,61.48
2024-04-24T21:18:12.001Z,61.46
2024-04-24T21:20:44.127Z,61.82
2024-04-24T21:23:18.425Z,62.07
2024-04-24T21:25:51.776Z,61.87
2024-04-24T21:28:31.175Z,62.64
2024-04-24T21:31:07.274Z,62.30
2024-04-24T21:33:39.358Z,62.21
2024-04-24T21:36:11.474Z,62.92
2024-04-24T21:38:43.590Z,62.17
2024-04-24T21:41:22.886Z,62.32
2024-04-24T21:43:55.072Z,62.52
2024-04-24T21:46:27.012Z,62.54
2024-04-24T21:48:59.075Z,62.99
2024-04-24T21:51:31.115Z,63.10
2024-04-24T21:54:05.020Z,62.63
2024-04-24T21:56:38.052Z,62.69
2024-04-24T21:59:11.464Z,63.18
2024-04-24T22:01:43.434Z,63.02
2024-04-24T22:04:15.476Z,62.88
2024-04-24T22:06:47.828Z,62.67
2024-04-24T22:09:20.417Z,63.41
2024-04-24T22:11:52.643Z,62.92
2024-04-24T22:14:28.487Z,63.66
2024-04-24T22:17:03.282Z,63.15
2024-04-24T22:19:39.284Z,63.31
2024-04-24T22:22:11.642Z,63.65
2024-04-24T22:24:43.616Z,64.21
2024-04-24T22:27:15.951Z,64.18
2024-04-24T22:29:48.098Z,63.98
2024-04-24T22:32:20.104Z,64.04
2024-04-24T22:34:52.154Z,64.09
2024-04-24T22:37:25.035Z,64.11
2024-04-24T22:39:57.328Z,64.35
2024-04-24T22:42:29.290Z,64.50
2024-04-24T22:45:01.132Z,64.62
2024-04-24T22:47:33.442Z,64.49
2024-04-24T22:50:05.570Z,63.88
2024-04-24T22:52:37.936Z,63.99
2024-04-24T22:55:10.232Z,64.29
2024-04-24T22:57:42.876Z,64.32
2024-04-24T23:00:19.477Z,63.85
2024-04-24T23:02:51.977Z,64.42
2024-04-24T23:05:24.480Z,65.05
2024-04-24T23:07:56.508Z,64.26
2024-04-24T23:10:29.090Z,63.90
2024-04-24T23:13:01.149Z,64.30
2024-04-24T23:15:33.383Z,64.21
2024-04-24T23:18:07.300Z,63.80
2024-04-24T23:20:39.525Z,64.20
2024-04-24T23:23:14.640Z,63.80
2024-04-24T23:25:46.627Z,63.68
2024-04-24T23:28:19.345Z,63.45
2024-04-24T23:30:52.230Z,63.65
2024-04-24T23:33:24.418Z,63.68
2024-04-24T23:35:56.376Z,63.17
2024-04-24T23:38:28.359Z,62.95
2024-04-24T23:41:01.274Z,63.30
2024-04-24T23:43:33.743Z,63.21
2024-04-24T23:46:05.982Z,63.59
2024-04-24T23:48:39.390Z,63.99
2024-04-24T23:51:14.757Z,62.77
2024-04-24T23:53:50.620Z,63.80
2024-04-24T23:56:24.417Z,63.55
2024-04-24T23:58:59.520Z,63.19
